sensor_id;sensor_type;location;lat;lon;timestamp;temperature;humidity
13253;DHT22;6693;54.370;10.132;2022-09-09T00:01:54;19.20;99.90
13253;DHT22;6693;54.370;10.132;2022-09-09T00:03:58;19.20;99.90
13253;DHT22;6693;54.370;10.132;2022-09-09T00:06:04;19.20;99.90
13253;DHT22;6693;54.370;10.132;2022-09-09T00:08:09;19.20;99.90
13253;DHT22;6693;54.370;10.132;2022-09-09T00:10:16;19.20;99.90
13253;DHT22;6693;54.370;10.132;2022-09-09T00:12:24;19.20;99.90
13253;DHT22;6693;54.370;10.132;2022-09-09T00:14:31;19.30;99.90
13253;DHT22;6693;54.370;10.132;2022-09-09T00:16:36;20.40;99.90
13253;DHT22;6693;54.370;10.132;2022-09-09T00:18:45;19.40;99.90
13253;DHT22;6693;54.370;10.132;2022-09-09T00:20:49;19.10;99.90
13253;DHT22;6693;54.370;10.132;2022-09-09T00:22:57;19.00;99.90
13253;DHT22;6693;54.370;10.132;2022-09-09T00:25:02;19.30;99.90
13253;DHT22;6693;54.370;10.132;2022-09-09T00:27:12;19.40;99.90
13253;DHT22;6693;54.370;10.132;2022-09-09T00:29:20;19.40;99.90
13253;DHT22;6693;54.370;10.132;2022-09-09T00:31:25;19.40;99.90
13253;DHT22;6693;54.370;10.132;2022-09-09T00:33:27;19.20;99.90
13253;DHT22;6693;54.370;10.132;2022-09-09T00:35:32;19.30;99.90
13253;DHT22;6693;54.370;10.132;2022-09-09T00:37:35;19.20;99.90
13253;DHT22;6693;54.370;10.132;2022-09-09T00:39:38;19.10;99.90
13253;DHT22;6693;54.370;10.132;2022-09-09T00:41:45;19.20;99.90
13253;DHT22;6693;54.370;10.132;2022-09-09T00:43:52;19.40;99.90
13253;DHT22;6693;54.370;10.132;2022-09-09T00:46:08;19.10;99.90
13253;DHT22;6693;54.370;10.132;2022-09-09T00:48:12;19.10;99.90
13253;DHT22;6693;54.370;10.132;2022-09-09T00:50:25;19.10;99.90
13253;DHT22;6693;54.370;10.132;2022-09-09T00:52:36;19.10;99.90
13253;DHT22;6693;54.370;10.132;2022-09-09T00:54:44;19.50;99.90
13253;DHT22;6693;54.370;10.132;2022-09-09T00:56:50;19.10;99.90
13253;DHT22;6693;54.370;10.132;2022-09-09T00:58:56;19.30;99.90
13253;DHT22;6693;54.370;10.132;2022-09-09T01:01:02;19.10;99.90
13253;DHT22;6693;54.370;10.132;2022-09-09T01:03:17;21.50;99.90
13253;DHT22;6693;54.370;10.132;2022-09-09T01:05:24;19.30;99.90
13253;DHT22;6693;54.370;10.132;2022-09-09T01:07:28;19.30;99.90
13253;DHT22;6693;54.370;10.132;2022-09-09T01:09:32;19.20;99.90
13253;DHT22;6693;54.370;10.132;2022-09-09T01:11:38;20.50;99.90
13253;DHT22;6693;54.370;10.132;2022-09-09T01:13:41;19.40;99.90
13253;DHT22;6693;54.370;10.132;2022-09-09T01:15:47;19.20;99.90
13253;DHT22;6693;54.370;10.132;2022-09-09T01:17:51;19.10;99.90
13253;DHT22;6693;54.370;10.132;2022-09-09T01:20:02;19.40;99.90
13253;DHT22;6693;54.370;10.132;2022-09-09T01:22:06;19.30;99.90
13253;DHT22;6693;54.370;10.132;2022-09-09T01:24:15;19.40;99.90
13253;DHT22;6693;54.370;10.132;2022-09-09T01:26:24;19.40;99.90
13253;DHT22;6693;54.370;10.132;2022-09-09T01:28:26;19.40;99.90
13253;DHT22;6693;54.370;10.132;2022-09-09T01:30:29;20.20;99.90
13253;DHT22;6693;54.370;10.132;2022-09-09T01:32:41;20.80;99.90
13253;DHT22;6693;54.370;10.132;2022-09-09T01:34:43;19.30;99.90
13253;DHT22;6693;54.370;10.132;2022-09-09T01:36:46;20.50;99.90
13253;DHT22;6693;54.370;10.132;2022-09-09T01:38:50;20.90;99.90
13253;DHT22;6693;54.370;10.132;2022-09-09T01:40:52;19.40;99.90
13253;DHT22;6693;54.370;10.132;2022-09-09T01:42:55;19.30;99.90
13253;DHT22;6693;54.370;10.132;2022-09-09T01:44:57;19.20;99.90
13253;DHT22;6693;54.370;10.132;2022-09-09T01:46:59;19.30;99.90
13253;DHT22;6693;54.370;10.132;2022-09-09T01:49:00;19.30;99.90
13253;DHT22;6693;54.370;10.132;2022-09-09T01:51:03;19.20;99.90
13253;DHT22;6693;54.370;10.132;2022-09-09T01:53:05;19.20;99.90
13253;DHT22;6693;54.370;10.132;2022-09-09T01:55:07;18.50;99.90
13253;DHT22;6693;54.370;10.132;2022-09-09T01:57:11;20.90;99.90
13253;DHT22;6693;54.370;10.132;2022-09-09T01:59:27;19.40;99.90
13253;DHT22;6693;54.370;10.132;2022-09-09T02:01:35;19.30;99.90
13253;DHT22;6693;54.370;10.132;2022-09-09T02:03:38;19.30;99.90
13253;DHT22;6693;54.370;10.132;2022-09-09T02:05:43;20.00;99.90
13253;DHT22;6693;54.370;10.132;2022-09-09T02:07:47;19.40;99.90
13253;DHT22;6693;54.370;10.132;2022-09-09T02:09:49;20.70;99.90
13253;DHT22;6693;54.370;10.132;2022-09-09T02:11:57;20.90;99.90
13253;DHT22;6693;54.370;10.132;2022-09-09T02:14:01;19.30;99.90
13253;DHT22;6693;54.370;10.132;2022-09-09T02:16:07;19.30;99.90
13253;DHT22;6693;54.370;10.132;2022-09-09T02:18:09;19.30;99.90
13253;DHT22;6693;54.370;10.132;2022-09-09T02:20:14;19.50;99.90
13253;DHT22;6693;54.370;10.132;2022-09-09T02:22:16;19.40;99.90
13253;DHT22;6693;54.370;10.132;2022-09-09T02:24:18;19.50;99.90
13253;DHT22;6693;54.370;10.132;2022-09-09T02:26:20;19.40;99.90
13253;DHT22;6693;54.370;10.132;2022-09-09T02:28:24;19.30;99.90
13253;DHT22;6693;54.370;10.132;2022-09-09T02:30:26;19.20;99.90
13253;DHT22;6693;54.370;10.132;2022-09-09T02:32:30;19.10;99.90
13253;DHT22;6693;54.370;10.132;2022-09-09T02:34:34;19.30;99.90
13253;DHT22;6693;54.370;10.132;2022-09-09T02:36:36;19.20;99.90
13253;DHT22;6693;54.370;10.132;2022-09-09T02:38:39;19.30;99.90
13253;DHT22;6693;54.370;10.132;2022-09-09T02:40:41;19.40;99.90
13253;DHT22;6693;54.370;10.132;2022-09-09T02:42:44;19.20;99.90
13253;DHT22;6693;54.370;10.132;2022-09-09T02:44:46;19.30;99.90
13253;DHT22;6693;54.370;10.132;2022-09-09T02:46:52;19.30;99.90
13253;DHT22;6693;54.370;10.132;2022-09-09T02:49:01;19.50;99.90
13253;DHT22;6693;54.370;10.132;2022-09-09T02:51:07;19.40;99.90
13253;DHT22;6693;54.370;10.132;2022-09-09T02:53:11;19.40;99.90
13253;DHT22;6693;54.370;10.132;2022-09-09T02:55:17;19.30;99.90
13253;DHT22;6693;54.370;10.132;2022-09-09T02:57:20;19.10;99.90
13253;DHT22;6693;54.370;10.132;2022-09-09T02:59:24;19.10;99.90
13253;DHT22;6693;54.370;10.132;2022-09-09T03:01:26;19.50;99.90
13253;DHT22;6693;54.370;10.132;2022-09-09T03:03:28;19.60;99.90
13253;DHT22;6693;54.370;10.132;2022-09-09T03:05:32;19.30;99.90
13253;DHT22;6693;54.370;10.132;2022-09-09T03:07:33;19.20;99.90
13253;DHT22;6693;54.370;10.132;2022-09-09T03:09:35;19.20;99.90
13253;DHT22;6693;54.370;10.132;2022-09-09T03:11:36;19.10;99.90
13253;DHT22;6693;54.370;10.132;2022-09-09T03:13:38;19.10;99.90
13253;DHT22;6693;54.370;10.132;2022-09-09T03:15:40;19.10;99.90
13253;DHT22;6693;54.370;10.132;2022-09-09T03:17:41;19.10;99.90
13253;DHT22;6693;54.370;10.132;2022-09-09T03:19:43;19.30;99.90
13253;DHT22;6693;54.370;10.132;2022-09-09T03:21:46;19.20;99.90
13253;DHT22;6693;54.370;10.132;2022-09-09T03:23:48;19.10;99.90
13253;DHT22;6693;54.370;10.132;2022-09-09T03:25:49;19.30;99.90
13253;DHT22;6693;54.370;10.132;2022-09-09T03:27:52;19.40;99.90
13253;DHT22;6693;54.370;10.132;2022-09-09T03:29:54;19.60;99.90
13253;DHT22;6693;54.370;10.132;2022-09-09T03:31:56;19.50;99.90
13253;DHT22;6693;54.370;10.132;2022-09-09T03:33:57;19.30;99.90
13253;DHT22;6693;54.370;10.132;2022-09-09T03:35:59;19.30;99.90
13253;DHT22;6693;54.370;10.132;2022-09-09T03:38:02;19.10;99.90
13253;DHT22;6693;54.370;10.132;2022-09-09T03:40:04;19.00;99.90
13253;DHT22;6693;54.370;10.132;2022-09-09T03:42:06;19.20;99.90
13253;DHT22;6693;54.370;10.132;2022-09-09T03:44:08;19.10;99.90
13253;DHT22;6693;54.370;10.132;2022-09-09T03:46:09;18.80;99.90
13253;DHT22;6693;54.370;10.132;2022-09-09T03:48:11;19.00;99.90
13253;DHT22;6693;54.370;10.132;2022-09-09T03:50:12;19.00;99.90
13253;DHT22;6693;54.370;10.132;2022-09-09T03:52:14;19.00;99.90
13253;DHT22;6693;54.370;10.132;2022-09-09T03:54:17;18.90;99.90
13253;DHT22;6693;54.370;10.132;2022-09-09T03:56:20;19.10;99.90
13253;DHT22;6693;54.370;10.132;2022-09-09T03:58:22;19.10;99.90
13253;DHT22;6693;54.370;10.132;2022-09-09T04:00:24;18.90;99.90
13253;DHT22;6693;54.370;10.132;2022-09-09T04:02:26;18.90;99.90
13253;DHT22;6693;54.370;10.132;2022-09-09T04:04:28;19.00;99.90
13253;DHT22;6693;54.370;10.132;2022-09-09T04:06:30;18.90;99.90
13253;DHT22;6693;54.370;10.132;2022-09-09T04:08:31;18.80;99.90
13253;DHT22;6693;54.370;10.132;2022-09-09T04:10:34;19.00;99.90
13253;DHT22;6693;54.370;10.132;2022-09-09T04:12:37;19.00;99.90
13253;DHT22;6693;54.370;10.132;2022-09-09T04:14:38;18.80;99.90
13253;DHT22;6693;54.370;10.132;2022-09-09T04:16:40;19.00;99.90
13253;DHT22;6693;54.370;10.132;2022-09-09T04:18:44;19.10;99.90
13253;DHT22;6693;54.370;10.132;2022-09-09T04:20:46;19.10;99.90
13253;DHT22;6693;54.370;10.132;2022-09-09T04:22:48;19.10;99.90
13253;DHT22;6693;54.370;10.132;2022-09-09T04:24:49;18.90;99.90
13253;DHT22;6693;54.370;10.132;2022-09-09T04:26:52;18.80;99.90
13253;DHT22;6693;54.370;10.132;2022-09-09T04:28:53;18.90;99.90
13253;DHT22;6693;54.370;10.132;2022-09-09T04:30:56;19.10;99.90
13253;DHT22;6693;54.370;10.132;2022-09-09T04:32:57;18.90;99.90
13253;DHT22;6693;54.370;10.132;2022-09-09T04:34:59;19.00;99.90
13253;DHT22;6693;54.370;10.132;2022-09-09T04:37:01;19.20;99.90
13253;DHT22;6693;54.370;10.132;2022-09-09T04:39:02;18.80;99.90
13253;DHT22;6693;54.370;10.132;2022-09-09T04:41:04;19.00;99.90
13253;DHT22;6693;54.370;10.132;2022-09-09T04:43:07;18.70;99.90
13253;DHT22;6693;54.370;10.132;2022-09-09T04:45:09;18.90;99.90
13253;DHT22;6693;54.370;10.132;2022-09-09T04:47:12;18.80;99.90
13253;DHT22;6693;54.370;10.132;2022-09-09T04:49:15;18.80;99.90
13253;DHT22;6693;54.370;10.132;2022-09-09T04:51:16;18.70;99.90
13253;DHT22;6693;54.370;10.132;2022-09-09T04:53:18;18.90;99.90
13253;DHT22;6693;54.370;10.132;2022-09-09T04:55:19;18.90;99.90
13253;DHT22;6693;54.370;10.132;2022-09-09T04:57:21;18.90;99.90
13253;DHT22;6693;54.370;10.132;2022-09-09T04:59:24;18.80;99.90
13253;DHT22;6693;54.370;10.132;2022-09-09T05:01:25;19.10;99.90
13253;DHT22;6693;54.370;10.132;2022-09-09T05:03:27;18.90;99.90
13253;DHT22;6693;54.370;10.132;2022-09-09T05:05:29;18.80;99.90
13253;DHT22;6693;54.370;10.132;2022-09-09T05:07:30;18.80;99.90
13253;DHT22;6693;54.370;10.132;2022-09-09T05:09:32;18.90;99.90
13253;DHT22;6693;54.370;10.132;2022-09-09T05:11:33;18.70;99.90
13253;DHT22;6693;54.370;10.132;2022-09-09T05:13:36;18.90;99.90
13253;DHT22;6693;54.370;10.132;2022-09-09T05:15:39;18.80;99.90
13253;DHT22;6693;54.370;10.132;2022-09-09T05:17:43;18.70;99.90
13253;DHT22;6693;54.370;10.132;2022-09-09T05:19:44;19.00;99.90
13253;DHT22;6693;54.370;10.132;2022-09-09T05:21:46;19.00;99.90
13253;DHT22;6693;54.370;10.132;2022-09-09T05:23:48;18.90;99.90
13253;DHT22;6693;54.370;10.132;2022-09-09T05:25:57;18.90;99.90
13253;DHT22;6693;54.370;10.132;2022-09-09T05:27:58;18.50;99.90
13253;DHT22;6693;54.370;10.132;2022-09-09T05:30:01;18.70;99.90
13253;DHT22;6693;54.370;10.132;2022-09-09T05:32:04;18.60;99.90
13253;DHT22;6693;54.370;10.132;2022-09-09T05:34:06;18.90;99.90
13253;DHT22;6693;54.370;10.132;2022-09-09T05:36:08;19.00;99.90
13253;DHT22;6693;54.370;10.132;2022-09-09T05:38:11;19.00;99.90
13253;DHT22;6693;54.370;10.132;2022-09-09T05:40:12;19.00;99.90
13253;DHT22;6693;54.370;10.132;2022-09-09T05:42:14;18.80;99.90
13253;DHT22;6693;54.370;10.132;2022-09-09T05:44:16;18.90;99.90
13253;DHT22;6693;54.370;10.132;2022-09-09T05:46:18;19.10;99.90
13253;DHT22;6693;54.370;10.132;2022-09-09T05:48:21;18.80;99.90
13253;DHT22;6693;54.370;10.132;2022-09-09T05:50:22;18.90;99.90
13253;DHT22;6693;54.370;10.132;2022-09-09T05:52:24;18.80;99.90
13253;DHT22;6693;54.370;10.132;2022-09-09T05:54:26;18.90;99.90
13253;DHT22;6693;54.370;10.132;2022-09-09T05:56:28;19.20;99.90
13253;DHT22;6693;54.370;10.132;2022-09-09T05:58:29;19.20;99.90
13253;DHT22;6693;54.370;10.132;2022-09-09T06:00:31;18.90;99.90
13253;DHT22;6693;54.370;10.132;2022-09-09T06:02:33;19.20;99.90
13253;DHT22;6693;54.370;10.132;2022-09-09T06:04:35;19.00;99.90
13253;DHT22;6693;54.370;10.132;2022-09-09T06:06:37;18.90;99.90
13253;DHT22;6693;54.370;10.132;2022-09-09T06:08:40;18.90;99.90
13253;DHT22;6693;54.370;10.132;2022-09-09T06:10:42;19.10;99.90
13253;DHT22;6693;54.370;10.132;2022-09-09T06:12:44;19.20;99.90
13253;DHT22;6693;54.370;10.132;2022-09-09T06:14:45;19.40;99.90
13253;DHT22;6693;54.370;10.132;2022-09-09T06:16:47;19.20;99.90
13253;DHT22;6693;54.370;10.132;2022-09-09T06:18:49;19.10;99.90
13253;DHT22;6693;54.370;10.132;2022-09-09T06:20:55;19.00;99.90
13253;DHT22;6693;54.370;10.132;2022-09-09T06:22:57;19.00;99.90
13253;DHT22;6693;54.370;10.132;2022-09-09T06:24:59;19.40;99.90
13253;DHT22;6693;54.370;10.132;2022-09-09T06:27:01;19.20;99.90
13253;DHT22;6693;54.370;10.132;2022-09-09T06:29:03;18.90;99.90
13253;DHT22;6693;54.370;10.132;2022-09-09T06:31:05;18.90;99.90
13253;DHT22;6693;54.370;10.132;2022-09-09T06:33:07;19.20;99.90
13253;DHT22;6693;54.370;10.132;2022-09-09T06:35:09;19.30;99.90
13253;DHT22;6693;54.370;10.132;2022-09-09T06:37:12;19.10;99.90
13253;DHT22;6693;54.370;10.132;2022-09-09T06:39:13;19.20;99.90
13253;DHT22;6693;54.370;10.132;2022-09-09T06:41:16;19.10;99.90
13253;DHT22;6693;54.370;10.132;2022-09-09T06:43:18;19.30;99.90
13253;DHT22;6693;54.370;10.132;2022-09-09T06:45:20;19.10;99.90
13253;DHT22;6693;54.370;10.132;2022-09-09T06:47:22;19.40;99.90
13253;DHT22;6693;54.370;10.132;2022-09-09T06:49:24;19.30;99.90
13253;DHT22;6693;54.370;10.132;2022-09-09T06:51:27;19.00;99.90
13253;DHT22;6693;54.370;10.132;2022-09-09T06:53:30;19.20;99.90
13253;DHT22;6693;54.370;10.132;2022-09-09T06:55:33;19.30;99.90
13253;DHT22;6693;54.370;10.132;2022-09-09T06:57:35;19.20;99.90
13253;DHT22;6693;54.370;10.132;2022-09-09T06:59:36;19.10;99.90
13253;DHT22;6693;54.370;10.132;2022-09-09T07:01:38;18.90;99.90
13253;DHT22;6693;54.370;10.132;2022-09-09T07:03:41;19.10;99.90
13253;DHT22;6693;54.370;10.132;2022-09-09T07:05:43;19.30;99.90
13253;DHT22;6693;54.370;10.132;2022-09-09T07:07:44;19.20;99.90
13253;DHT22;6693;54.370;10.132;2022-09-09T07:09:47;19.30;99.90
13253;DHT22;6693;54.370;10.132;2022-09-09T07:11:50;19.70;99.90
13253;DHT22;6693;54.370;10.132;2022-09-09T07:13:53;19.50;99.90
13253;DHT22;6693;54.370;10.132;2022-09-09T07:15:54;19.50;99.90
13253;DHT22;6693;54.370;10.132;2022-09-09T07:18:00;19.40;99.90
13253;DHT22;6693;54.370;10.132;2022-09-09T07:20:02;19.80;99.90
13253;DHT22;6693;54.370;10.132;2022-09-09T07:22:04;19.50;99.90
13253;DHT22;6693;54.370;10.132;2022-09-09T07:24:06;19.70;99.90
13253;DHT22;6693;54.370;10.132;2022-09-09T07:26:12;19.80;99.90
13253;DHT22;6693;54.370;10.132;2022-09-09T07:28:14;20.00;99.90
13253;DHT22;6693;54.370;10.132;2022-09-09T07:30:15;19.70;99.90
13253;DHT22;6693;54.370;10.132;2022-09-09T07:32:18;20.00;99.90
13253;DHT22;6693;54.370;10.132;2022-09-09T07:34:20;19.80;99.90
13253;DHT22;6693;54.370;10.132;2022-09-09T07:36:22;20.10;99.90
13253;DHT22;6693;54.370;10.132;2022-09-09T07:38:24;20.00;99.90
13253;DHT22;6693;54.370;10.132;2022-09-09T07:40:25;20.40;99.90
13253;DHT22;6693;54.370;10.132;2022-09-09T07:42:29;20.40;99.90
13253;DHT22;6693;54.370;10.132;2022-09-09T07:44:30;20.50;99.90
13253;DHT22;6693;54.370;10.132;2022-09-09T07:46:32;20.50;99.90
13253;DHT22;6693;54.370;10.132;2022-09-09T07:48:34;20.60;99.90
13253;DHT22;6693;54.370;10.132;2022-09-09T07:50:35;20.50;99.90
13253;DHT22;6693;54.370;10.132;2022-09-09T07:52:37;20.70;99.90
13253;DHT22;6693;54.370;10.132;2022-09-09T07:54:39;20.70;99.90
13253;DHT22;6693;54.370;10.132;2022-09-09T07:56:40;20.80;99.90
13253;DHT22;6693;54.370;10.132;2022-09-09T07:58:45;20.70;99.90
13253;DHT22;6693;54.370;10.132;2022-09-09T08:00:47;20.90;99.90
13253;DHT22;6693;54.370;10.132;2022-09-09T08:02:48;20.70;99.90
13253;DHT22;6693;54.370;10.132;2022-09-09T08:04:50;20.60;99.90
13253;DHT22;6693;54.370;10.132;2022-09-09T08:06:52;20.30;99.90
13253;DHT22;6693;54.370;10.132;2022-09-09T08:08:54;20.30;99.90
13253;DHT22;6693;54.370;10.132;2022-09-09T08:11:03;20.50;99.90
13253;DHT22;6693;54.370;10.132;2022-09-09T08:13:05;21.00;99.90
13253;DHT22;6693;54.370;10.132;2022-09-09T08:15:08;20.80;99.90
13253;DHT22;6693;54.370;10.132;2022-09-09T08:17:09;20.90;99.90
13253;DHT22;6693;54.370;10.132;2022-09-09T08:19:11;21.00;99.90
13253;DHT22;6693;54.370;10.132;2022-09-09T08:21:13;21.30;99.90
13253;DHT22;6693;54.370;10.132;2022-09-09T08:23:15;21.30;99.90
13253;DHT22;6693;54.370;10.132;2022-09-09T08:25:17;21.80;99.90
13253;DHT22;6693;54.370;10.132;2022-09-09T08:27:18;21.70;99.90
13253;DHT22;6693;54.370;10.132;2022-09-09T08:29:20;21.70;99.90
13253;DHT22;6693;54.370;10.132;2022-09-09T08:31:23;21.40;99.90
13253;DHT22;6693;54.370;10.132;2022-09-09T08:33:25;21.40;99.90
13253;DHT22;6693;54.370;10.132;2022-09-09T08:35:26;21.70;99.90
13253;DHT22;6693;54.370;10.132;2022-09-09T08:37:32;21.90;99.90
13253;DHT22;6693;54.370;10.132;2022-09-09T08:39:34;22.10;99.90
13253;DHT22;6693;54.370;10.132;2022-09-09T08:41:41;22.00;99.90
13253;DHT22;6693;54.370;10.132;2022-09-09T08:43:45;22.10;99.90
13253;DHT22;6693;54.370;10.132;2022-09-09T08:45:49;22.10;99.90
13253;DHT22;6693;54.370;10.132;2022-09-09T08:47:57;22.50;99.90
13253;DHT22;6693;54.370;10.132;2022-09-09T08:50:05;22.70;99.90
13253;DHT22;6693;54.370;10.132;2022-09-09T08:52:08;22.60;99.90
13253;DHT22;6693;54.370;10.132;2022-09-09T08:54:14;22.50;99.90
13253;DHT22;6693;54.370;10.132;2022-09-09T08:56:16;22.70;99.90
13253;DHT22;6693;54.370;10.132;2022-09-09T08:58:20;22.90;99.90
13253;DHT22;6693;54.370;10.132;2022-09-09T09:00:22;23.10;99.90
13253;DHT22;6693;54.370;10.132;2022-09-09T09:02:25;23.00;99.90
13253;DHT22;6693;54.370;10.132;2022-09-09T09:04:32;22.80;99.90
13253;DHT22;6693;54.370;10.132;2022-09-09T09:06:38;23.00;99.90
13253;DHT22;6693;54.370;10.132;2022-09-09T09:08:46;23.10;99.90
13253;DHT22;6693;54.370;10.132;2022-09-09T09:10:49;22.90;99.90
13253;DHT22;6693;54.370;10.132;2022-09-09T09:12:51;22.70;99.90
13253;DHT22;6693;54.370;10.132;2022-09-09T09:14:54;22.60;99.90
13253;DHT22;6693;54.370;10.132;2022-09-09T09:16:58;22.60;99.90
13253;DHT22;6693;54.370;10.132;2022-09-09T09:19:00;22.30;99.90
13253;DHT22;6693;54.370;10.132;2022-09-09T09:21:04;22.60;99.90
13253;DHT22;6693;54.370;10.132;2022-09-09T09:23:09;22.30;99.90
13253;DHT22;6693;54.370;10.132;2022-09-09T09:25:16;22.50;99.90
13253;DHT22;6693;54.370;10.132;2022-09-09T09:27:21;22.50;99.90
13253;DHT22;6693;54.370;10.132;2022-09-09T09:29:28;22.20;99.90
13253;DHT22;6693;54.370;10.132;2022-09-09T09:31:30;21.90;99.90
13253;DHT22;6693;54.370;10.132;2022-09-09T09:33:33;22.10;99.90
13253;DHT22;6693;54.370;10.132;2022-09-09T09:35:35;22.20;99.90
13253;DHT22;6693;54.370;10.132;2022-09-09T09:37:39;22.40;99.90
13253;DHT22;6693;54.370;10.132;2022-09-09T09:39:41;22.70;99.90
13253;DHT22;6693;54.370;10.132;2022-09-09T09:41:42;23.30;99.90
13253;DHT22;6693;54.370;10.132;2022-09-09T09:43:52;23.40;99.90
13253;DHT22;6693;54.370;10.132;2022-09-09T09:45:54;23.30;99.90
13253;DHT22;6693;54.370;10.132;2022-09-09T09:48:01;23.20;99.90
13253;DHT22;6693;54.370;10.132;2022-09-09T09:50:03;23.40;99.90
13253;DHT22;6693;54.370;10.132;2022-09-09T09:52:05;23.70;99.90
13253;DHT22;6693;54.370;10.132;2022-09-09T09:54:13;24.20;99.90
13253;DHT22;6693;54.370;10.132;2022-09-09T09:56:16;23.80;99.90
13253;DHT22;6693;54.370;10.132;2022-09-09T09:58:17;23.70;99.90
13253;DHT22;6693;54.370;10.132;2022-09-09T10:00:20;23.80;99.90
13253;DHT22;6693;54.370;10.132;2022-09-09T10:02:23;23.80;99.90
13253;DHT22;6693;54.370;10.132;2022-09-09T10:04:25;23.60;99.90
13253;DHT22;6693;54.370;10.132;2022-09-09T10:06:31;23.70;99.90
13253;DHT22;6693;54.370;10.132;2022-09-09T10:08:33;23.60;99.90
13253;DHT22;6693;54.370;10.132;2022-09-09T10:10:39;23.70;99.90
13253;DHT22;6693;54.370;10.132;2022-09-09T10:12:46;23.60;99.90
13253;DHT22;6693;54.370;10.132;2022-09-09T10:14:51;23.70;99.90
13253;DHT22;6693;54.370;10.132;2022-09-09T10:16:58;23.70;99.90
13253;DHT22;6693;54.370;10.132;2022-09-09T10:19:05;23.70;99.90
13253;DHT22;6693;54.370;10.132;2022-09-09T10:21:10;23.50;99.90
13253;DHT22;6693;54.370;10.132;2022-09-09T10:23:19;23.80;99.90
13253;DHT22;6693;54.370;10.132;2022-09-09T10:25:29;23.60;99.90
13253;DHT22;6693;54.370;10.132;2022-09-09T10:27:38;23.90;99.90
13253;DHT22;6693;54.370;10.132;2022-09-09T10:29:49;23.80;99.90
13253;DHT22;6693;54.370;10.132;2022-09-09T10:31:53;24.00;99.90
13253;DHT22;6693;54.370;10.132;2022-09-09T10:33:59;24.20;99.90
13253;DHT22;6693;54.370;10.132;2022-09-09T10:36:07;24.50;99.90
13253;DHT22;6693;54.370;10.132;2022-09-09T10:38:14;24.60;99.90
13253;DHT22;6693;54.370;10.132;2022-09-09T10:40:22;24.70;99.90
13253;DHT22;6693;54.370;10.132;2022-09-09T10:42:27;24.00;99.90
13253;DHT22;6693;54.370;10.132;2022-09-09T10:44:36;23.80;99.90
13253;DHT22;6693;54.370;10.132;2022-09-09T10:46:45;24.20;99.90
13253;DHT22;6693;54.370;10.132;2022-09-09T10:48:55;24.50;99.90
13253;DHT22;6693;54.370;10.132;2022-09-09T10:51:02;25.00;99.90
13253;DHT22;6693;54.370;10.132;2022-09-09T10:53:13;25.00;99.90
13253;DHT22;6693;54.370;10.132;2022-09-09T10:55:16;24.70;99.90
13253;DHT22;6693;54.370;10.132;2022-09-09T10:57:21;24.60;99.90
13253;DHT22;6693;54.370;10.132;2022-09-09T10:59:27;24.60;99.90
13253;DHT22;6693;54.370;10.132;2022-09-09T11:01:35;24.60;99.90
13253;DHT22;6693;54.370;10.132;2022-09-09T11:03:38;24.60;99.90
13253;DHT22;6693;54.370;10.132;2022-09-09T11:05:42;24.50;99.90
13253;DHT22;6693;54.370;10.132;2022-09-09T11:07:46;24.70;99.90
13253;DHT22;6693;54.370;10.132;2022-09-09T11:09:50;24.60;99.90
13253;DHT22;6693;54.370;10.132;2022-09-09T11:11:54;24.50;99.90
13253;DHT22;6693;54.370;10.132;2022-09-09T11:13:58;24.60;99.90
13253;DHT22;6693;54.370;10.132;2022-09-09T11:16:04;24.90;99.90
13253;DHT22;6693;54.370;10.132;2022-09-09T11:18:08;24.50;99.90
13253;DHT22;6693;54.370;10.132;2022-09-09T11:20:12;24.60;99.90
13253;DHT22;6693;54.370;10.132;2022-09-09T11:22:16;24.40;99.90
13253;DHT22;6693;54.370;10.132;2022-09-09T11:24:21;24.60;99.90
13253;DHT22;6693;54.370;10.132;2022-09-09T11:26:26;24.70;99.90
13253;DHT22;6693;54.370;10.132;2022-09-09T11:28:32;25.10;99.90
13253;DHT22;6693;54.370;10.132;2022-09-09T11:30:42;25.10;99.90
13253;DHT22;6693;54.370;10.132;2022-09-09T11:32:59;25.20;99.90
13253;DHT22;6693;54.370;10.132;2022-09-09T11:35:07;25.30;99.90
13253;DHT22;6693;54.370;10.132;2022-09-09T11:37:22;25.40;35.70
13253;DHT22;6693;54.370;10.132;2022-09-09T11:39:37;25.60;1.00
13253;DHT22;6693;54.370;10.132;2022-09-09T11:41:40;25.70;1.00
13253;DHT22;6693;54.370;10.132;2022-09-09T11:43:42;25.90;1.00
13253;DHT22;6693;54.370;10.132;2022-09-09T11:45:50;25.60;99.90
13253;DHT22;6693;54.370;10.132;2022-09-09T11:47:53;25.70;1.00
13253;DHT22;6693;54.370;10.132;2022-09-09T11:49:55;26.20;1.00
13253;DHT22;6693;54.370;10.132;2022-09-09T11:51:58;25.70;99.90
13253;DHT22;6693;54.370;10.132;2022-09-09T11:54:00;25.60;99.90
13253;DHT22;6693;54.370;10.132;2022-09-09T11:56:07;25.80;1.00
13253;DHT22;6693;54.370;10.132;2022-09-09T11:58:14;25.70;1.00
13253;DHT22;6693;54.370;10.132;2022-09-09T12:00:31;25.40;1.00
13253;DHT22;6693;54.370;10.132;2022-09-09T12:02:34;25.30;1.00
13253;DHT22;6693;54.370;10.132;2022-09-09T12:04:37;25.40;1.00
13253;DHT22;6693;54.370;10.132;2022-09-09T12:06:44;25.00;99.90
13253;DHT22;6693;54.370;10.132;2022-09-09T12:08:48;25.20;1.00
13253;DHT22;6693;54.370;10.132;2022-09-09T12:10:53;25.40;1.00
13253;DHT22;6693;54.370;10.132;2022-09-09T12:12:55;23.90;99.90
13253;DHT22;6693;54.370;10.132;2022-09-09T12:14:58;26.00;99.90
13253;DHT22;6693;54.370;10.132;2022-09-09T12:17:08;26.00;99.90
13253;DHT22;6693;54.370;10.132;2022-09-09T12:19:14;26.40;99.90
13253;DHT22;6693;54.370;10.132;2022-09-09T12:21:18;26.90;1.00
13253;DHT22;6693;54.370;10.132;2022-09-09T12:23:25;26.90;1.00
13253;DHT22;6693;54.370;10.132;2022-09-09T12:25:32;27.30;99.90
13253;DHT22;6693;54.370;10.132;2022-09-09T12:27:40;27.30;99.90
13253;DHT22;6693;54.370;10.132;2022-09-09T12:30:14;27.00;99.90
13253;DHT22;6693;54.370;10.132;2022-09-09T12:32:17;27.00;99.90
13253;DHT22;6693;54.370;10.132;2022-09-09T12:34:23;26.70;1.00
13253;DHT22;6693;54.370;10.132;2022-09-09T12:36:28;26.50;99.90
13253;DHT22;6693;54.370;10.132;2022-09-09T12:38:31;26.10;1.00
13253;DHT22;6693;54.370;10.132;2022-09-09T12:40:34;25.90;1.00
13253;DHT22;6693;54.370;10.132;2022-09-09T12:42:39;26.20;1.00
13253;DHT22;6693;54.370;10.132;2022-09-09T12:44:49;25.90;1.00
13253;DHT22;6693;54.370;10.132;2022-09-09T12:46:52;25.80;99.90
13253;DHT22;6693;54.370;10.132;2022-09-09T12:48:54;25.60;1.00
13253;DHT22;6693;54.370;10.132;2022-09-09T12:50:56;25.80;1.00
13253;DHT22;6693;54.370;10.132;2022-09-09T12:52:59;25.60;1.00
13253;DHT22;6693;54.370;10.132;2022-09-09T12:55:04;25.70;1.00
13253;DHT22;6693;54.370;10.132;2022-09-09T12:57:09;25.50;1.00
13253;DHT22;6693;54.370;10.132;2022-09-09T12:59:17;26.60;99.90
13253;DHT22;6693;54.370;10.132;2022-09-09T13:01:23;26.60;99.90
13253;DHT22;6693;54.370;10.132;2022-09-09T13:03:27;26.20;99.90
13253;DHT22;6693;54.370;10.132;2022-09-09T13:05:33;26.10;99.90